sensor_id;sensor_type;location;lat;lon;timestamp;pressure;altitude;pressure_sealevel;temperature;humidity
61674;BME280;47573;43.832;5.974;2022-12-11T00:03:58;93766.66;;;20.18;72.25
61674;BME280;47573;43.832;5.974;2022-12-11T00:08:58;93773.47;;;20.15;72.04
61674;BME280;47573;43.832;5.974;2022-12-11T00:14:00;93774.19;;;20.05;72.27
61674;BME280;47573;43.832;5.974;2022-12-11T00:19:00;93753.06;;;20.02;72.29
61674;BME280;47573;43.832;5.974;2022-12-11T00:24:01;93743.56;;;20.00;71.97
61674;BME280;47573;43.832;5.974;2022-12-11T00:29:03;93758.72;;;19.96;71.92
61674;BME280;47573;43.832;5.974;2022-12-11T00:34:04;93787.94;;;19.94;71.83
61674;BME280;47573;43.832;5.974;2022-12-11T00:39:04;93784.09;;;19.85;71.83
61674;BME280;47573;43.832;5.974;2022-12-11T00:44:06;93794.34;;;19.83;71.74
61674;BME280;47573;43.832;5.974;2022-12-11T00:49:07;93786.75;;;19.80;71.57
61674;BME280;47573;43.832;5.974;2022-12-11T00:54:07;93787.00;;;19.73;71.53
61674;BME280;47573;43.832;5.974;2022-12-11T00:59:09;93785.06;;;19.69;71.61
61674;BME280;47573;43.832;5.974;2022-12-11T01:04:09;93780.69;;;19.68;71.66
61674;BME280;47573;43.832;5.974;2022-12-11T01:09:10;93807.78;;;19.68;71.54
61674;BME280;47573;43.832;5.974;2022-12-11T01:14:12;93820.72;;;19.61;71.37
61674;BME280;47573;43.832;5.974;2022-12-11T01:19:12;93814.19;;;19.57;71.47
61674;BME280;47573;43.832;5.974;2022-12-11T01:24:13;93813.09;;;19.53;71.39
61674;BME280;47573;43.832;5.974;2022-12-11T01:29:15;93802.75;;;19.50;71.35
61674;BME280;47573;43.832;5.974;2022-12-11T01:34:15;93808.09;;;19.45;71.51
61674;BME280;47573;43.832;5.974;2022-12-11T01:39:15;93824.34;;;19.45;71.24
61674;BME280;47573;43.832;5.974;2022-12-11T01:49:55;93834.84;;;19.36;70.83
61674;BME280;47573;43.832;5.974;2022-12-11T01:54:56;93846.47;;;19.37;70.44
61674;BME280;47573;43.832;5.974;2022-12-11T01:59:56;93830.41;;;19.30;70.65
61674;BME280;47573;43.832;5.974;2022-12-11T02:04:58;93828.63;;;19.36;70.40
61674;BME280;47573;43.832;5.974;2022-12-11T02:10:00;93838.53;;;19.30;70.80
61674;BME280;47573;43.832;5.974;2022-12-11T02:15:06;93850.63;;;19.22;70.68
61674;BME280;47573;43.832;5.974;2022-12-11T02:20:18;93845.19;;;19.17;70.41
61674;BME280;47573;43.832;5.974;2022-12-11T02:25:25;93845.69;;;19.14;69.90
61674;BME280;47573;43.832;5.974;2022-12-11T02:30:33;93840.53;;;19.13;70.10
61674;BME280;47573;43.832;5.974;2022-12-11T02:35:39;93840.19;;;19.09;70.03
61674;BME280;47573;43.832;5.974;2022-12-11T02:40:41;93835.81;;;19.03;70.07
61674;BME280;47573;43.832;5.974;2022-12-11T02:45:45;93836.34;;;19.00;70.24
61674;BME280;47573;43.832;5.974;2022-12-11T02:50:48;93850.91;;;18.99;70.10
61674;BME280;47573;43.832;5.974;2022-12-11T02:55:55;93847.34;;;18.94;70.13
61674;BME280;47573;43.832;5.974;2022-12-11T03:00:58;93849.47;;;18.92;70.24
61674;BME280;47573;43.832;5.974;2022-12-11T03:05:59;93842.69;;;18.89;70.19
61674;BME280;47573;43.832;5.974;2022-12-11T03:10:59;93844.25;;;18.85;70.12
61674;BME280;47573;43.832;5.974;2022-12-11T03:16:11;93856.66;;;18.81;70.32
61674;BME280;47573;43.832;5.974;2022-12-11T03:21:19;93850.69;;;18.79;70.33
61674;BME280;47573;43.832;5.974;2022-12-11T03:26:22;93853.31;;;18.74;70.24
61674;BME280;47573;43.832;5.974;2022-12-11T03:31:29;93832.19;;;18.71;70.28
61674;BME280;47573;43.832;5.974;2022-12-11T03:36:32;93834.34;;;18.69;70.20
61674;BME280;47573;43.832;5.974;2022-12-11T03:41:35;93822.41;;;18.65;70.31
61674;BME280;47573;43.832;5.974;2022-12-11T03:46:40;93812.63;;;18.64;70.14
61674;BME280;47573;43.832;5.974;2022-12-11T03:51:44;93813.09;;;18.56;70.33
61674;BME280;47573;43.832;5.974;2022-12-11T03:56:47;93829.81;;;18.53;70.38
61674;BME280;47573;43.832;5.974;2022-12-11T04:01:51;93827.88;;;18.49;70.30
61674;BME280;47573;43.832;5.974;2022-12-11T04:06:52;93820.81;;;18.48;70.28
61674;BME280;47573;43.832;5.974;2022-12-11T04:11:52;93804.28;;;18.44;70.23
61674;BME280;47573;43.832;5.974;2022-12-11T04:16:54;93815.56;;;18.41;70.30
61674;BME280;47573;43.832;5.974;2022-12-11T04:21:55;93817.13;;;18.37;70.16
61674;BME280;47573;43.832;5.974;2022-12-11T04:26:55;93829.50;;;18.33;70.09
61674;BME280;47573;43.832;5.974;2022-12-11T04:31:57;93822.97;;;18.29;70.20
61674;BME280;47573;43.832;5.974;2022-12-11T04:36:58;93817.56;;;18.29;69.85
61674;BME280;47573;43.832;5.974;2022-12-11T04:41:58;93825.94;;;18.27;69.99
61674;BME280;47573;43.832;5.974;2022-12-11T04:47:00;93826.09;;;18.21;69.81
61674;BME280;47573;43.832;5.974;2022-12-11T04:52:00;93819.09;;;18.20;69.94
61674;BME280;47573;43.832;5.974;2022-12-11T04:57:01;93824.22;;;18.21;69.72
61674;BME280;47573;43.832;5.974;2022-12-11T05:02:03;93814.16;;;18.17;69.72
61674;BME280;47573;43.832;5.974;2022-12-11T05:07:04;93812.19;;;18.12;69.78
61674;BME280;47573;43.832;5.974;2022-12-11T05:12:04;93826.44;;;18.08;69.74
61674;BME280;47573;43.832;5.974;2022-12-11T05:17:06;93824.81;;;18.07;69.68
61674;BME280;47573;43.832;5.974;2022-12-11T05:22:06;93830.13;;;18.02;69.74
61674;BME280;47573;43.832;5.974;2022-12-11T05:27:07;93836.63;;;18.01;69.52
61674;BME280;47573;43.832;5.974;2022-12-11T05:32:09;93833.34;;;17.99;69.46
61674;BME280;47573;43.832;5.974;2022-12-11T05:37:09;93835.47;;;17.97;69.51
61674;BME280;47573;43.832;5.974;2022-12-11T05:42:10;93827.28;;;17.92;69.33
61674;BME280;47573;43.832;5.974;2022-12-11T05:47:12;93826.00;;;17.94;69.29
61674;BME280;47573;43.832;5.974;2022-12-11T05:52:12;93811.59;;;17.89;69.22
61674;BME280;47573;43.832;5.974;2022-12-11T05:57:13;93795.41;;;17.89;69.18
61674;BME280;47573;43.832;5.974;2022-12-11T06:02:14;93809.97;;;17.88;69.04
61674;BME280;47573;43.832;5.974;2022-12-11T06:07:15;93812.56;;;17.83;69.18
61674;BME280;47573;43.832;5.974;2022-12-11T06:12:15;93820.09;;;17.81;68.95
61674;BME280;47573;43.832;5.974;2022-12-11T06:17:17;93813.91;;;17.80;68.97
61674;BME280;47573;43.832;5.974;2022-12-11T06:22:18;93820.59;;;17.78;68.95
61674;BME280;47573;43.832;5.974;2022-12-11T06:27:18;93823.22;;;17.73;69.03
61674;BME280;47573;43.832;5.974;2022-12-11T06:32:20;93825.34;;;17.71;69.02
61674;BME280;47573;43.832;5.974;2022-12-11T06:37:21;93825.50;;;17.64;69.04
61674;BME280;47573;43.832;5.974;2022-12-11T06:42:21;93833.84;;;17.62;69.04
61674;BME280;47573;43.832;5.974;2022-12-11T06:47:23;93830.25;;;17.57;69.07
61674;BME280;47573;43.832;5.974;2022-12-11T06:52:25;93836.63;;;17.51;69.33
61674;BME280;47573;43.832;5.974;2022-12-11T06:57:26;93840.72;;;17.53;69.49
61674;BME280;47573;43.832;5.974;2022-12-11T07:02:27;93839.41;;;17.56;68.90
61674;BME280;47573;43.832;5.974;2022-12-11T07:07:28;93847.50;;;17.56;68.86
61674;BME280;47573;43.832;5.974;2022-12-11T07:12:28;93848.81;;;17.53;68.91
61674;BME280;47573;43.832;5.974;2022-12-11T07:17:30;93849.97;;;17.57;69.41
61674;BME280;47573;43.832;5.974;2022-12-11T07:22:31;93851.03;;;17.56;69.81
61674;BME280;47573;43.832;5.974;2022-12-11T07:27:31;93849.97;;;17.57;69.62
61674;BME280;47573;43.832;5.974;2022-12-11T07:32:33;93858.06;;;17.57;70.04
61674;BME280;47573;43.832;5.974;2022-12-11T07:37:33;93868.34;;;17.60;69.65
61674;BME280;47573;43.832;5.974;2022-12-11T07:42:34;93858.66;;;17.59;69.74
61674;BME280;47573;43.832;5.974;2022-12-11T07:47:36;93863.13;;;17.71;69.37
61674;BME280;47573;43.832;5.974;2022-12-11T07:52:36;93863.47;;;17.74;69.23
61674;BME280;47573;43.832;5.974;2022-12-11T07:57:37;93869.19;;;17.78;69.22
61674;BME280;47573;43.832;5.974;2022-12-11T08:02:38;93860.00;;;17.79;69.07
61674;BME280;47573;43.832;5.974;2022-12-11T08:07:39;93860.00;;;17.79;68.95
61674;BME280;47573;43.832;5.974;2022-12-11T08:12:39;93868.22;;;17.84;68.78
61674;BME280;47573;43.832;5.974;2022-12-11T08:17:41;93875.75;;;17.82;68.58
61674;BME280;47573;43.832;5.974;2022-12-11T08:22:42;93873.59;;;17.84;68.79
61674;BME280;47573;43.832;5.974;2022-12-11T08:27:42;93862.16;;;17.77;69.01
61674;BME280;47573;43.832;5.974;2022-12-11T08:32:44;93865.41;;;17.79;68.78
61674;BME280;47573;43.832;5.974;2022-12-11T08:37:45;93870.34;;;17.82;68.63
61674;BME280;47573;43.832;5.974;2022-12-11T08:42:45;93864.94;;;17.82;68.49
61674;BME280;47573;43.832;5.974;2022-12-11T08:47:47;93864.53;;;17.90;68.57
61674;BME280;47573;43.832;5.974;2022-12-11T08:52:47;93863.63;;;18.01;67.85
61674;BME280;47573;43.832;5.974;2022-12-11T08:57:48;93870.66;;;18.02;67.62
61674;BME280;47573;43.832;5.974;2022-12-11T09:02:49;93870.31;;;18.15;67.02
61674;BME280;47573;43.832;5.974;2022-12-11T09:07:50;93878.84;;;18.07;65.62
61674;BME280;47573;43.832;5.974;2022-12-11T09:12:50;93887.09;;;18.17;66.23
61674;BME280;47573;43.832;5.974;2022-12-11T09:17:52;93886.84;;;18.18;66.04
61674;BME280;47573;43.832;5.974;2022-12-11T09:22:53;93889.06;;;18.21;66.17
61674;BME280;47573;43.832;5.974;2022-12-11T09:27:53;93895.03;;;18.23;66.14
61674;BME280;47573;43.832;5.974;2022-12-11T09:32:55;93899.44;;;18.29;66.04
61674;BME280;47573;43.832;5.974;2022-12-11T09:37:55;93894.34;;;18.33;65.69
61674;BME280;47573;43.832;5.974;2022-12-11T09:43:00;93894.03;;;18.29;65.63
61674;BME280;47573;43.832;5.974;2022-12-11T09:48:04;93917.09;;;18.37;65.25
61674;BME280;47573;43.832;5.974;2022-12-11T09:53:09;93918.19;;;18.36;65.03
61674;BME280;47573;43.832;5.974;2022-12-11T09:58:16;93917.94;;;18.54;64.97
61674;BME280;47573;43.832;5.974;2022-12-11T10:08:55;93909.16;;;18.85;64.18
61674;BME280;47573;43.832;5.974;2022-12-11T10:14:07;93908.47;;;18.95;64.68
61674;BME280;47573;43.832;5.974;2022-12-11T10:19:16;93899.09;;;19.02;64.89
61674;BME280;47573;43.832;5.974;2022-12-11T10:24:23;93911.53;;;19.03;65.27
61674;BME280;47573;43.832;5.974;2022-12-11T10:29:24;93911.06;;;19.06;65.49
61674;BME280;47573;43.832;5.974;2022-12-11T10:34:32;93900.53;;;19.10;65.22
61674;BME280;47573;43.832;5.974;2022-12-11T10:39:33;93898.28;;;19.23;65.19
61674;BME280;47573;43.832;5.974;2022-12-11T10:44:33;93894.03;;;19.33;63.85
61674;BME280;47573;43.832;5.974;2022-12-11T10:49:37;93902.06;;;19.44;64.11
61674;BME280;47573;43.832;5.974;2022-12-11T10:54:39;93899.19;;;19.56;63.20
61674;BME280;47573;43.832;5.974;2022-12-11T10:59:44;93904.38;;;19.62;62.81
61674;BME280;47573;43.832;5.974;2022-12-11T11:04:47;93905.81;;;19.70;64.53
61674;BME280;47573;43.832;5.974;2022-12-11T11:09:48;93918.09;;;19.77;64.14
61674;BME280;47573;43.832;5.974;2022-12-11T11:14:58;93920.34;;;19.90;64.12
61674;BME280;47573;43.832;5.974;2022-12-11T11:20:11;93915.28;;;19.99;64.55
61674;BME280;47573;43.832;5.974;2022-12-11T11:25:18;93916.41;;;20.03;64.80
61674;BME280;47573;43.832;5.974;2022-12-11T11:30:21;93910.28;;;20.13;63.06
61674;BME280;47573;43.832;5.974;2022-12-11T11:35:25;93901.41;;;20.22;63.65
61674;BME280;47573;43.832;5.974;2022-12-11T11:40:27;93905.25;;;20.26;63.35
61674;BME280;47573;43.832;5.974;2022-12-11T11:45:33;93895.00;;;20.33;63.32
61674;BME280;47573;43.832;5.974;2022-12-11T11:50:40;93888.53;;;20.39;63.65
61674;BME280;47573;43.832;5.974;2022-12-11T11:55:50;93855.47;;;20.42;64.40
61674;BME280;47573;43.832;5.974;2022-12-11T12:00:53;93851.75;;;20.48;63.21
61674;BME280;47573;43.832;5.974;2022-12-11T12:06:00;93868.63;;;20.60;63.92
61674;BME280;47573;43.832;5.974;2022-12-11T12:11:06;93851.78;;;20.63;63.63
61674;BME280;47573;43.832;5.974;2022-12-11T12:16:16;93860.66;;;20.49;66.74
61674;BME280;47573;43.832;5.974;2022-12-11T12:21:27;93864.13;;;20.02;68.24
61674;BME280;47573;43.832;5.974;2022-12-11T12:26:32;93864.28;;;19.86;68.86
61674;BME280;47573;43.832;5.974;2022-12-11T12:31:50;93879.13;;;19.83;68.48
61674;BME280;47573;43.832;5.974;2022-12-11T12:36:59;93884.47;;;19.73;69.02
61674;BME280;47573;43.832;5.974;2022-12-11T12:42:11;93865.28;;;19.80;68.26
61674;BME280;47573;43.832;5.974;2022-12-11T12:47:17;93858.53;;;19.82;67.95
61674;BME280;47573;43.832;5.974;2022-12-11T12:52:24;93860.44;;;19.82;67.95
61674;BME280;47573;43.832;5.974;2022-12-11T12:57:27;93850.13;;;19.79;67.89
61674;BME280;47573;43.832;5.974;2022-12-11T13:02:28;93850.13;;;19.79;67.88
61674;BME280;47573;43.832;5.974;2022-12-11T13:07:31;93854.91;;;19.72;67.77
61674;BME280;47573;43.832;5.974;2022-12-11T13:12:43;93851.66;;;19.70;67.92
61674;BME280;47573;43.832;5.974;2022-12-11T13:17:44;93848.94;;;19.70;67.84
61674;BME280;47573;43.832;5.974;2022-12-11T13:22:55;93842.47;;;19.71;67.51
61674;BME280;47573;43.832;5.974;2022-12-11T13:28:05;93839.22;;;19.69;67.20
61674;BME280;47573;43.832;5.974;2022-12-11T13:33:14;93837.88;;;19.71;67.03
61674;BME280;47573;43.832;5.974;2022-12-11T13:38:19;93836.75;;;19.67;67.03
61674;BME280;47573;43.832;5.974;2022-12-11T13:43:23;93845.94;;;19.66;67.06
61674;BME280;47573;43.832;5.974;2022-12-11T13:48:27;93847.28;;;19.64;67.14
61674;BME280;47573;43.832;5.974;2022-12-11T13:53:30;93847.84;;;19.66;66.68
61674;BME280;47573;43.832;5.974;2022-12-11T13:58:33;93845.66;;;19.63;66.86
61674;BME280;47573;43.832;5.974;2022-12-11T14:03:34;93854.13;;;19.71;66.65
61674;BME280;47573;43.832;5.974;2022-12-11T14:08:39;93862.75;;;20.00;65.02
61674;BME280;47573;43.832;5.974;2022-12-11T14:13:43;93865.16;;;20.28;64.56
61674;BME280;47573;43.832;5.974;2022-12-11T14:18:44;93878.19;;;20.31;65.57
61674;BME280;47573;43.832;5.974;2022-12-11T14:23:51;93880.41;;;20.39;64.50
61674;BME280;47573;43.832;5.974;2022-12-11T14:28:53;93891.88;;;20.51;64.04
61674;BME280;47573;43.832;5.974;2022-12-11T14:33:56;93899.50;;;20.59;62.74
61674;BME280;47573;43.832;5.974;2022-12-11T14:39:02;93902.19;;;20.54;63.55
61674;BME280;47573;43.832;5.974;2022-12-11T14:44:06;93901.66;;;20.57;64.15
61674;BME280;47573;43.832;5.974;2022-12-11T14:49:16;93911.41;;;20.53;65.86
61674;BME280;47573;43.832;5.974;2022-12-11T14:54:26;93906.50;;;20.50;67.27
61674;BME280;47573;43.832;5.974;2022-12-11T14:59:30;93915.38;;;20.41;66.81
61674;BME280;47573;43.832;5.974;2022-12-11T15:04:32;93916.47;;;20.40;68.48
61674;BME280;47573;43.832;5.974;2022-12-11T15:09:37;93906.41;;;20.35;68.48
61674;BME280;47573;43.832;5.974;2022-12-11T15:14:40;93908.56;;;20.38;68.25
61674;BME280;47573;43.832;5.974;2022-12-11T15:19:45;93896.66;;;20.39;68.10
61674;BME280;47573;43.832;5.974;2022-12-11T15:24:51;93899.38;;;20.39;67.94
61674;BME280;47573;43.832;5.974;2022-12-11T15:29:52;93909.94;;;20.36;68.30
61674;BME280;47573;43.832;5.974;2022-12-11T15:34:54;93910.72;;;20.31;67.97
61674;BME280;47573;43.832;5.974;2022-12-11T15:39:58;93919.66;;;20.32;68.91
61674;BME280;47573;43.832;5.974;2022-12-11T15:44:59;93914.50;;;20.30;69.36
61674;BME280;47573;43.832;5.974;2022-12-11T15:50:06;93914.53;;;20.35;68.65
61674;BME280;47573;43.832;5.974;2022-12-11T15:55:09;93915.09;;;20.42;68.57
61674;BME280;47573;43.832;5.974;2022-12-11T16:00:13;93927.59;;;20.43;68.83
61674;BME280;47573;43.832;5.974;2022-12-11T16:05:14;93919.97;;;20.35;68.91
61674;BME280;47573;43.832;5.974;2022-12-11T16:10:17;93927.53;;;20.33;69.58
61674;BME280;47573;43.832;5.974;2022-12-11T16:15:18;93929.41;;;20.33;69.44
61674;BME280;47573;43.832;5.974;2022-12-11T16:20:18;93934.00;;;20.32;69.42
61674;BME280;47573;43.832;5.974;2022-12-11T16:25:20;93924.25;;;20.31;70.10
61674;BME280;47573;43.832;5.974;2022-12-11T16:30:21;93918.84;;;20.31;69.55
61674;BME280;47573;43.832;5.974;2022-12-11T16:35:21;93921.03;;;20.34;69.01
61674;BME280;47573;43.832;5.974;2022-12-11T16:40:23;93913.28;;;20.48;68.06
61674;BME280;47573;43.832;5.974;2022-12-11T16:45:25;93914.09;;;20.48;68.80
61674;BME280;47573;43.832;5.974;2022-12-11T16:50:25;93916.00;;;20.53;68.79
61674;BME280;47573;43.832;5.974;2022-12-11T16:55:27;93910.25;;;20.44;68.77
61674;BME280;47573;43.832;5.974;2022-12-11T17:00:28;93912.94;;;20.44;69.50
61674;BME280;47573;43.832;5.974;2022-12-11T17:05:28;93916.19;;;20.41;70.26
61674;BME280;47573;43.832;5.974;2022-12-11T17:10:30;93918.97;;;20.51;69.84
61674;BME280;47573;43.832;5.974;2022-12-11T17:15:31;93918.91;;;20.41;70.66
61674;BME280;47573;43.832;5.974;2022-12-11T17:20:31;93925.38;;;20.35;71.17
61674;BME280;47573;43.832;5.974;2022-12-11T17:25:33;93933.50;;;20.35;71.61
61674;BME280;47573;43.832;5.974;2022-12-11T17:30:34;93940.00;;;20.34;71.50
61674;BME280;47573;43.832;5.974;2022-12-11T17:35:38;93932.97;;;20.38;71.43
61674;BME280;47573;43.832;5.974;2022-12-11T17:40:40;93933.53;;;20.40;71.02
61674;BME280;47573;43.832;5.974;2022-12-11T17:45:41;93935.69;;;20.38;71.47
61674;BME280;47573;43.832;5.974;2022-12-11T17:50:44;93933.53;;;20.40;71.61
61674;BME280;47573;43.832;5.974;2022-12-11T17:55:47;93937.34;;;20.39;71.73
61674;BME280;47573;43.832;5.974;2022-12-11T18:00:49;93938.94;;;20.40;71.32
61674;BME280;47573;43.832;5.974;2022-12-11T18:05:52;93951.44;;;20.41;71.64
61674;BME280;47573;43.832;5.974;2022-12-11T18:10:56;93956.88;;;20.41;71.60
61674;BME280;47573;43.832;5.974;2022-12-11T18:16:01;93959.56;;;20.41;71.56
61674;BME280;47573;43.832;5.974;2022-12-11T18:21:02;93968.81;;;20.45;71.07
61674;BME280;47573;43.832;5.974;2022-12-11T18:26:04;93974.25;;;20.45;71.52
61674;BME280;47573;43.832;5.974;2022-12-11T18:31:05;93988.84;;;20.44;71.75
61674;BME280;47573;43.832;5.974;2022-12-11T18:36:07;93981.00;;;20.43;71.82
61674;BME280;47573;43.832;5.974;2022-12-11T18:41:10;93984.59;;;20.48;71.97
61674;BME280;47573;43.832;5.974;2022-12-11T18:46:13;93990.50;;;20.45;71.93
61674;BME280;47573;43.832;5.974;2022-12-11T18:51:15;93999.69;;;20.44;72.03
61674;BME280;47573;43.832;5.974;2022-12-11T18:56:19;94005.94;;;20.45;71.93
61674;BME280;47573;43.832;5.974;2022-12-11T19:01:21;93987.59;;;20.57;71.49
61674;BME280;47573;43.832;5.974;2022-12-11T19:06:23;93984.06;;;20.51;71.67
61674;BME280;47573;43.832;5.974;2022-12-11T19:11:27;93986.81;;;20.56;71.68
61674;BME280;47573;43.832;5.974;2022-12-11T19:16:30;93979.16;;;20.48;72.43
61674;BME280;47573;43.832;5.974;2022-12-11T19:21:31;93972.09;;;20.47;72.27
61674;BME280;47573;43.832;5.974;2022-12-11T19:26:33;93975.91;;;20.46;72.51
61674;BME280;47573;43.832;5.974;2022-12-11T19:31:34;93977.50;;;20.47;71.93
61674;BME280;47573;43.832;5.974;2022-12-11T19:36:35;93988.34;;;20.47;72.89
61674;BME280;47573;43.832;5.974;2022-12-11T19:41:37;93976.19;;;20.50;72.59
61674;BME280;47573;43.832;5.974;2022-12-11T19:46:37;93982.50;;;20.60;71.65
61674;BME280;47573;43.832;5.974;2022-12-11T19:51:39;93985.22;;;20.60;70.42
61674;BME280;47573;43.832;5.974;2022-12-11T19:56:42;93986.81;;;20.56;72.49
61674;BME280;47573;43.832;5.974;2022-12-11T20:01:44;93983.00;;;20.57;72.16
61674;BME280;47573;43.832;5.974;2022-12-11T20:06:46;93979.78;;;20.60;71.81
61674;BME280;47573;43.832;5.974;2022-12-11T20:11:48;93984.13;;;20.61;72.22
61674;BME280;47573;43.832;5.974;2022-12-11T20:16:48;93998.50;;;20.62;72.38
61674;BME280;47573;43.832;5.974;2022-12-11T20:21:50;93999.91;;;20.69;72.41
61674;BME280;47573;43.832;5.974;2022-12-11T20:26:53;94008.03;;;20.69;72.10
61674;BME280;47573;43.832;5.974;2022-12-11T20:31:53;94010.50;;;20.71;71.28
61674;BME280;47573;43.832;5.974;2022-12-11T20:36:54;94021.16;;;20.82;71.83
61674;BME280;47573;43.832;5.974;2022-12-11T20:41:56;94011.97;;;20.89;72.22
61674;BME280;47573;43.832;5.974;2022-12-11T20:46:56;94015.19;;;20.80;73.31
61674;BME280;47573;43.832;5.974;2022-12-11T20:51:56;94016.28;;;20.79;73.00
61674;BME280;47573;43.832;5.974;2022-12-11T20:56:58;94016.91;;;20.97;72.56
61674;BME280;47573;43.832;5.974;2022-12-11T21:01:59;94017.41;;;20.89;72.06
61674;BME280;47573;43.832;5.974;2022-12-11T21:06:59;94015.22;;;20.86;73.05
61674;BME280;47573;43.832;5.974;2022-12-11T21:12:01;94018.44;;;20.82;72.70
61674;BME280;47573;43.832;5.974;2022-12-11T21:17:02;94022.75;;;20.78;73.23
61674;BME280;47573;43.832;5.974;2022-12-11T21:22:02;94023.03;;;20.77;73.21
61674;BME280;47573;43.832;5.974;2022-12-11T21:27:04;94023.88;;;20.82;71.91
61674;BME280;47573;43.832;5.974;2022-12-11T21:32:05;94036.84;;;20.75;73.22
61674;BME280;47573;43.832;5.974;2022-12-11T21:37:05;94036.38;;;20.83;73.42
61674;BME280;47573;43.832;5.974;2022-12-11T21:42:07;94040.69;;;20.79;72.39
61674;BME280;47573;43.832;5.974;2022-12-11T21:47:07;94049.38;;;20.81;73.36
61674;BME280;47573;43.832;5.974;2022-12-11T21:52:08;94054.84;;;20.87;72.69
61674;BME280;47573;43.832;5.974;2022-12-11T21:57:10;94040.63;;;20.74;73.23
61674;BME280;47573;43.832;5.974;2022-12-11T22:02:10;94039.53;;;20.75;74.04
61674;BME280;47573;43.832;5.974;2022-12-11T22:07:11;94043.84;;;20.71;73.56
61674;BME280;47573;43.832;5.974;2022-12-11T22:12:18;94042.75;;;20.67;74.01
61674;BME280;47573;43.832;5.974;2022-12-11T22:17:20;94044.91;;;20.65;73.69
61674;BME280;47573;43.832;5.974;2022-12-11T22:22:21;94044.34;;;20.63;73.93
61674;BME280;47573;43.832;5.974;2022-12-11T22:27:22;94053.56;;;20.62;74.13
61674;BME280;47573;43.832;5.974;2022-12-11T22:32:23;94057.91;;;20.63;73.48
61674;BME280;47573;43.832;5.974;2022-12-11T22:37:24;94056.28;;;20.62;72.85
61674;BME280;47573;43.832;5.974;2022-12-11T22:42:26;94060.34;;;20.33;73.01
61674;BME280;47573;43.832;5.974;2022-12-11T22:47:26;94062.63;;;20.20;72.79
61674;BME280;47573;43.832;5.974;2022-12-11T22:52:27;94062.25;;;20.11;72.58
61674;BME280;47573;43.832;5.974;2022-12-11T22:57:29;94069.78;;;20.04;73.00
61674;BME280;47573;43.832;5.974;2022-12-11T23:02:29;94062.09;;;19.96;72.78
61674;BME280;47573;43.832;5.974;2022-12-11T23:07:30;94067.97;;;19.88;72.32
61674;BME280;47573;43.832;5.974;2022-12-11T23:12:32;94073.31;;;19.83;71.67
61674;BME280;47573;43.832;5.974;2022-12-11T23:17:32;94079.75;;;19.77;71.51
61674;BME280;47573;43.832;5.974;2022-12-11T23:22:33;94074.34;;;19.77;72.01
61674;BME280;47573;43.832;5.974;2022-12-11T23:27:35;94079.63;;;19.67;71.97
61674;BME280;47573;43.832;5.974;2022-12-11T23:32:36;94078.97;;;19.60;71.75
61674;BME280;47573;43.832;5.974;2022-12-11T23:37:36;94087.06;;;19.55;71.89
61674;BME280;47573;43.832;5.974;2022-12-11T23:42:38;94092.53;;;19.60;72.40
61674;BME280;47573;43.832;5.974;2022-12-11T23:47:38;94102.66;;;19.48;71.95
61674;BME280;47573;43.832;5.974;2022-12-11T23:52:39;94096.59;;;19.41;71.77
61674;BME280;47573;43.832;5.974;2022-12-11T23:57:41;94098.41;;;19.35;71.45
